Pagina principale
METAR-TAF:

METAR-TAF

Aeroporti :

Victoria Falls, Zimbabwe

latitudine: 18-06S, longitudine: 025-51E, altezza: 1061 m

Osservazione

Il bollettino è stato emesso 14 ore e 43 minuti fa, alle 14:00 UTC
Vento 4 kt da direzioni variabili
Temperature 36°C
Umidità 17%
Pressione 1011 hPa
Visibilità 10 km o più
nessuna nube inferiore a 1500 m e nessun cumulonembo

METAR: FVFA 201400Z VRB04KT CAVOK 36/07 Q1011 NOSIG

Ora: 06:43 (04:43 UTC)

Previsione

Il bollettino è stato emesso 43 minuti fa, alle 04:00 UTC
Previsione valida dal 19 alle 06 UTC al 20 alle 12 UTC
Vento 8 kt da est
Visibilità 10 km o più
nessuna nube inferiore a 1500 m e nessun cumulonembo

TAF: FVFA 190400Z 1906/2012 09008KT CAVOK

Osservazioni e previsioni meteorologiche di più di 4000 aeroporti (messaggi METAR e TAF).

Le stazioni disponibili sono rappresentate dai dischi gialli e rossi sulla carta.

Puntare il mouse per vedere il nome della stazione.

Clicca sopra per visualizzare le osservazioni e previsioni meteorologiche.

Per cambiare la mappa : fare clic sui pulsanti verdi con una croce nera per ingrandire, il pulsante verde con un trattino per diminuire, o sulla freccia verde per le mappe adiacenti.


METAR-TAF: